This is the latest recevied weather packets stored in our database for station/object IW4EMA-3. If no packets are shown the sender has not sent any weather packets the latest 10 day(s).
| Time | Temp. | Humidity | Pressure | Rain* | Wind** | Luminosity | Snow |
|---|---|---|---|---|---|---|---|
| 1777589364 | 10° C | 73% | 1026.1 hPa | 0 mm | - | 0 W/m² | - |
| 1777585785 | 10° C | 66% | 1025.9 hPa | 0 mm | - | 0 W/m² | - |
| 1777585176 | 10.56° C | 63% | 1025.8 hPa | 0 mm | - | 0 W/m² | - |
| 1777584565 | 10.56° C | 61% | 1025.6 hPa | 0 mm | - | 0 W/m² | - |
| 1777580987 | 12.22° C | 56% | 1025.2 hPa | - | - | 0 W/m² | - |
| 1777579159 | 12.22° C | 54% | 1025 hPa | - | - | 0 W/m² | - |
| 1777573159 | 14.44° C | 46% | 1023.8 hPa | - | - | 2 W/m² | - |
| 1777571367 | 15° C | 42% | 1023.5 hPa | - | - | 15 W/m² | - |
| 1777570168 | 15.56° C | 41% | 1023.5 hPa | - | - | 23 W/m² | - |
| 1777564779 | 17.22° C | 37% | 1022.8 hPa | - | - | 42 W/m² | - |
| 1777559960 | 17.78° C | 34% | 1023.1 hPa | - | - | 361 W/m² | - |
| 1777559367 | 17.78° C | 34% | 1023.2 hPa | - | - | 389 W/m² | - |
| 1777555787 | 17.78° C | 32% | 1023.3 hPa | - | - | 524 W/m² | - |
| 1777555159 | 17.22° C | 34% | 1023.4 hPa | - | - | 542 W/m² | - |
| 1777549767 | 17.22° C | 35% | 1024.1 hPa | - | - | 658 W/m² | - |
| 1777548588 | 16.67° C | 37% | 1024.3 hPa | - | - | 667 W/m² | - |
| 1777537159 | 15.56° C | 58% | 1024.1 hPa | 0 mm | - | 198 W/m² | - |
| 1777533580 | 13.89° C | 74% | 1023.8 hPa | - | - | 150 W/m² | - |
| 1777532359 | 13.33° C | 75% | 1023.7 hPa | - | - | 145 W/m² | - |
| 1777531767 | 12.78° C | 75% | 1023.6 hPa | - | - | 144 W/m² | - |
| 1777531160 | 12.78° C | 75% | 1023.4 hPa | - | - | 147 W/m² | - |
| 1777530568 | 12.78° C | 76% | 1023.4 hPa | - | - | 122 W/m² | - |
| 1777526966 | 11.11° C | 81% | 1022.6 hPa | - | - | 45 W/m² | - |
| 1777525767 | 11.11° C | 81% | 1022.5 hPa | - | - | 56 W/m² | - |
| 1777525199 | 11.11° C | 81% | 1022.2 hPa | - | - | 34 W/m² | - |
* Rain latest hour (hover to see other rain measurements)
** Current wind speed in m/s (hover to see current wind gust speed)